Aviation Digital Data Service (ADDS)

Output produced by METARs form (0817 UTC 25 April 2014)
found at http://www.aviationweather.gov/adds/metars/
 
KDEC 250520Z 2506/2606 15007KT P6SM VCSH OVC070 
     FM250900 31014KT P6SM -DZ BKN010 
     FM251300 32013G20KT P6SM FEW010 
     FM252100 27012KT P6SM SCT250 
     FM260000 24008KT P6SM SCT250